Time;durP1;ratioP1;P1;durP2;ratioP2;P2;SDS_P1;SDS_P2;PMS_P1;PMS_P2;Temp;Humidity;BMP_temperature;BMP_pressure;BME280_temperature;BME280_humidity;BME280_pressure;Samples;Min_cycle;Max_cycle;Signal;HPM_P1;HPM_P2
2021/12/29 00:02:09;;;;;;;;;;;5.70;99.90;;;;;;5015748;28;19913;-86
2021/12/29 00:04:34;;;;;;;;;;;5.70;99.90;;;;;;4996280;28;19972;-85
2021/12/29 00:07:00;;;;;;;;;;;5.70;99.90;;;;;;5011827;28;19925;-85
2021/12/29 00:09:26;;;;;;;;;;;5.80;99.90;;;;;;5015295;28;19917;-85
2021/12/29 00:11:51;;;;;;;;;;;5.70;99.90;;;;;;4999448;28;19918;-85
2021/12/29 00:14:17;;;;;;;;;;;5.80;99.90;;;;;;4996398;28;19993;-85
2021/12/29 00:16:43;;;;;;;;;;;5.80;99.90;;;;;;4997367;28;20409;-85
2021/12/29 00:19:09;;;;;;;;;;;5.90;99.90;;;;;;4998542;28;19955;-84
2021/12/29 00:21:35;;;;;;;;;;;5.80;99.90;;;;;;4999283;28;19913;-85
2021/12/29 00:24:02;;;;;;;;;;;5.90;99.90;;;;;;4995999;28;19921;-85
2021/12/29 00:26:28;;;;;;;;;;;5.90;99.90;;;;;;4995482;28;19913;-85
2021/12/29 00:28:54;;;;;;;;;;;6.00;99.90;;;;;;4963344;28;19932;-85
2021/12/29 00:31:20;;;;;;;;;;;5.90;99.90;;;;;;4996555;28;19909;-85
2021/12/29 00:34:19;;;;;;;;;;;5.90;99.90;;;;;;4966235;28;20299;-85
2021/12/29 00:37:23;;;;;;;;;;;5.90;99.90;;;;;;4940973;28;19922;-84
2021/12/29 00:40:08;;;;;;;;;;;5.90;99.90;;;;;;4939278;29;20022;-84
2021/12/29 00:42:54;;;;;;;;;;;5.80;99.90;;;;;;4964521;28;19959;-85
2021/12/29 00:45:39;;;;;;;;;;;5.80;99.90;;;;;;5018285;28;20395;-84
2021/12/29 00:48:08;;;;;;;;;;;5.80;99.90;;;;;;4999515;28;20016;-84
2021/12/29 00:50:34;;;;;;;;;;;5.90;99.90;;;;;;5015691;28;19909;-85
2021/12/29 00:52:59;;;;;;;;;;;5.80;99.90;;;;;;4999306;28;19974;-85
2021/12/29 00:55:25;;;;;;;;;;;5.80;99.90;;;;;;4995396;28;20339;-85
2021/12/29 00:57:51;;;;;;;;;;;5.80;99.90;;;;;;5008466;28;19917;-85
2021/12/29 01:00:19;;;;;;;;;;;5.70;99.90;;;;;;4994003;28;19939;-86
2021/12/29 01:02:44;;;;;;;;;;;5.70;99.90;;;;;;4998278;28;19917;-86
2021/12/29 01:05:10;;;;;;;;;;;5.60;99.90;;;;;;4978746;28;19975;-86
2021/12/29 01:07:36;;;;;;;;;;;5.60;99.90;;;;;;4994581;28;19976;-86
2021/12/29 01:10:03;;;;;;;;;;;5.60;99.90;;;;;;5000923;28;19953;-86
2021/12/29 01:12:29;;;;;;;;;;;5.50;99.90;;;;;;4998204;28;19913;-85
2021/12/29 01:14:56;;;;;;;;;;;5.50;99.90;;;;;;5014490;28;20421;-85
2021/12/29 01:17:22;;;;;;;;;;;5.50;99.90;;;;;;4997331;28;19917;-86
2021/12/29 01:19:49;;;;;;;;;;;5.40;99.90;;;;;;5014134;28;19913;-86
2021/12/29 01:22:15;;;;;;;;;;;5.40;99.90;;;;;;5016367;28;20323;-85
2021/12/29 01:24:42;;;;;;;;;;;5.30;99.90;;;;;;5014704;28;19913;-86
2021/12/29 01:27:08;;;;;;;;;;;5.30;99.90;;;;;;5013814;28;19982;-86
2021/12/29 01:29:34;;;;;;;;;;;5.30;99.90;;;;;;5013760;28;20371;-86
2021/12/29 01:32:00;;;;;;;;;;;5.30;99.90;;;;;;4998208;28;19920;-86
2021/12/29 01:34:26;;;;;;;;;;;5.30;99.90;;;;;;4996649;28;20451;-86
2021/12/29 01:36:52;;;;;;;;;;;5.30;99.90;;;;;;5013496;28;19923;-85
2021/12/29 01:39:18;;;;;;;;;;;5.20;99.90;;;;;;5013795;28;20315;-86
2021/12/29 01:41:44;;;;;;;;;;;5.10;99.90;;;;;;4987973;28;19917;-86
2021/12/29 01:44:11;;;;;;;;;;;5.10;99.90;;;;;;4986771;28;20376;-85
2021/12/29 01:46:38;;;;;;;;;;;5.10;99.90;;;;;;5013711;28;19924;-86
2021/12/29 01:49:04;;;;;;;;;;;5.20;99.90;;;;;;4997024;28;19913;-86
2021/12/29 01:51:30;;;;;;;;;;;5.30;99.90;;;;;;4994372;28;20028;-86
2021/12/29 01:54:16;;;;;;;;;;;5.30;99.90;;;;;;4994412;28;19953;-86
2021/12/29 01:56:44;;;;;;;;;;;5.30;99.90;;;;;;4977738;28;19924;-85
2021/12/29 01:59:10;;;;;;;;;;;5.30;99.90;;;;;;4994189;28;19967;-86
2021/12/29 02:01:35;;;;;;;;;;;5.40;99.90;;;;;;4995311;28;19964;-87
2021/12/29 02:04:01;;;;;;;;;;;5.40;99.90;;;;;;4993953;28;19949;-86
2021/12/29 02:06:26;;;;;;;;;;;5.40;99.90;;;;;;5012563;28;20448;-86
2021/12/29 02:08:54;;;;;;;;;;;5.30;99.90;;;;;;5029496;28;20407;-86
2021/12/29 02:11:28;;;;;;;;;;;5.30;99.90;;;;;;4997076;28;19913;-86
2021/12/29 02:13:55;;;;;;;;;;;5.30;99.90;;;;;;5014098;28;19925;-86
2021/12/29 02:16:20;;;;;;;;;;;5.20;99.90;;;;;;4996925;28;19947;-86
2021/12/29 02:18:50;;;;;;;;;;;5.20;99.90;;;;;;4993588;28;20002;-85
2021/12/29 02:21:20;;;;;;;;;;;5.10;99.90;;;;;;4977946;28;20015;-86
2021/12/29 02:24:03;;;;;;;;;;;5.00;99.90;;;;;;4987822;28;20392;-86
2021/12/29 02:26:30;;;;;;;;;;;5.00;99.90;;;;;;4996479;28;19920;-86
2021/12/29 02:28:56;;;;;;;;;;;5.00;99.90;;;;;;4996234;28;20059;-86
2021/12/29 02:31:23;;;;;;;;;;;5.00;99.90;;;;;;5010525;28;19989;-87
2021/12/29 02:33:48;;;;;;;;;;;5.10;99.90;;;;;;5010227;28;19914;-87
2021/12/29 02:36:16;;;;;;;;;;;5.10;99.90;;;;;;5009850;28;19928;-86
2021/12/29 02:38:47;;;;;;;;;;;5.10;99.90;;;;;;5012704;28;19917;-86
2021/12/29 02:41:13;;;;;;;;;;;5.10;99.90;;;;;;5012379;28;19913;-87
2021/12/29 02:43:40;;;;;;;;;;;5.10;99.90;;;;;;4981354;28;19967;-86
2021/12/29 02:46:11;;;;;;;;;;;5.10;99.90;;;;;;4996236;28;19913;-87
2021/12/29 02:48:40;;;;;;;;;;;5.00;99.90;;;;;;5026590;28;19935;-86
2021/12/29 02:51:08;;;;;;;;;;;5.00;99.90;;;;;;5013122;28;19924;-87
2021/12/29 02:53:34;;;;;;;;;;;5.00;99.90;;;;;;4996685;28;19913;-87
2021/12/29 02:55:59;;;;;;;;;;;5.00;99.90;;;;;;5012941;28;19913;-87
2021/12/29 02:58:26;;;;;;;;;;;5.10;99.90;;;;;;5012459;28;19924;-87
2021/12/29 03:00:52;;;;;;;;;;;5.20;99.90;;;;;;4993891;28;19918;-87
2021/12/29 03:03:20;;;;;;;;;;;5.20;99.90;;;;;;4993793;28;19991;-86
2021/12/29 03:05:46;;;;;;;;;;;5.20;99.90;;;;;;4992838;28;19913;-85
2021/12/29 03:08:13;;;;;;;;;;;5.20;99.90;;;;;;5009950;28;19968;-87
2021/12/29 03:10:39;;;;;;;;;;;5.30;99.90;;;;;;4993271;28;20605;-86
2021/12/29 03:13:04;;;;;;;;;;;5.40;99.90;;;;;;5007874;28;20006;-86
2021/12/29 03:15:30;;;;;;;;;;;5.40;99.90;;;;;;5012691;28;19921;-86
2021/12/29 03:17:56;;;;;;;;;;;5.50;99.90;;;;;;5014007;28;19917;-86
2021/12/29 03:20:21;;;;;;;;;;;5.50;99.90;;;;;;4996582;28;19921;-86
2021/12/29 03:22:47;;;;;;;;;;;5.50;99.90;;;;;;4986623;28;19920;-86
2021/12/29 03:25:13;;;;;;;;;;;5.50;99.90;;;;;;5016508;28;19913;-85
2021/12/29 03:27:38;;;;;;;;;;;5.50;99.90;;;;;;4996304;28;19924;-86
2021/12/29 03:30:04;;;;;;;;;;;5.50;99.90;;;;;;4980102;28;19965;-86
2021/12/29 03:33:12;;;;;;;;;;;5.40;99.90;;;;;;4996855;28;19921;-86
2021/12/29 03:35:20;;;;;;;;;;;5.40;99.90;;;;;;4997052;28;19939;-87
2021/12/29 03:37:45;;;;;;;;;;;5.40;99.90;;;;;;4996967;28;19922;-86
2021/12/29 03:40:11;;;;;;;;;;;5.40;99.90;;;;;;4996412;28;19920;-85
2021/12/29 03:42:37;;;;;;;;;;;5.40;99.90;;;;;;4980623;28;19917;-86
2021/12/29 03:45:04;;;;;;;;;;;5.40;99.90;;;;;;4996865;28;19913;-86
2021/12/29 03:47:30;;;;;;;;;;;5.40;99.90;;;;;;5006537;28;20004;-86
2021/12/29 03:49:55;;;;;;;;;;;5.40;99.90;;;;;;5015458;28;19963;-86
2021/12/29 03:52:21;;;;;;;;;;;5.40;99.90;;;;;;4999548;28;19979;-85
2021/12/29 03:54:46;;;;;;;;;;;5.40;99.90;;;;;;4996421;28;19921;-86
2021/12/29 03:57:12;;;;;;;;;;;5.40;99.90;;;;;;4995794;28;19929;-85
2021/12/29 03:59:38;;;;;;;;;;;5.40;99.90;;;;;;4995872;28;19928;-86
2021/12/29 04:02:03;;;;;;;;;;;5.40;99.90;;;;;;4998061;28;19913;-86
2021/12/29 04:04:29;;;;;;;;;;;5.40;99.90;;;;;;5015902;28;19932;-85
2021/12/29 04:06:55;;;;;;;;;;;5.50;99.90;;;;;;4983078;28;19917;-85
2021/12/29 04:09:21;;;;;;;;;;;5.60;99.90;;;;;;4999225;28;19917;-86
2021/12/29 04:11:50;;;;;;;;;;;5.60;99.90;;;;;;5015517;28;20418;-85
2021/12/29 04:14:20;;;;;;;;;;;5.70;99.90;;;;;;5015751;28;19913;-85
2021/12/29 04:16:47;;;;;;;;;;;5.70;99.90;;;;;;4998617;28;20375;-85
2021/12/29 04:19:28;;;;;;;;;;;5.80;99.90;;;;;;4998133;28;19910;-85
2021/12/29 04:21:54;;;;;;;;;;;5.90;99.90;;;;;;5015137;28;19917;-85
2021/12/29 04:24:20;;;;;;;;;;;5.80;99.90;;;;;;5014797;28;20331;-86
2021/12/29 04:26:45;;;;;;;;;;;5.90;99.90;;;;;;5030530;28;19917;-86
2021/12/29 04:29:13;;;;;;;;;;;5.90;99.90;;;;;;5013829;28;19917;-86
2021/12/29 04:31:39;;;;;;;;;;;5.90;99.90;;;;;;4999133;28;20588;-86
2021/12/29 04:34:04;;;;;;;;;;;5.90;99.90;;;;;;5015453;28;19917;-85
2021/12/29 04:36:30;;;;;;;;;;;5.90;99.90;;;;;;4998347;28;19921;-85
2021/12/29 04:38:58;;;;;;;;;;;6.00;99.90;;;;;;4998174;28;19924;-86
2021/12/29 04:41:24;;;;;;;;;;;6.00;99.90;;;;;;4995420;28;20000;-85
2021/12/29 04:43:49;;;;;;;;;;;6.00;99.90;;;;;;4979457;28;20143;-85
2021/12/29 04:46:17;;;;;;;;;;;6.10;99.90;;;;;;4991000;28;20008;-85
2021/12/29 04:48:50;;;;;;;;;;;6.10;99.90;;;;;;4994967;28;19917;-86
2021/12/29 04:51:23;;;;;;;;;;;6.10;99.90;;;;;;4964092;28;19922;-85
2021/12/29 04:53:50;;;;;;;;;;;6.20;99.90;;;;;;4999451;28;19920;-85
2021/12/29 04:56:16;;;;;;;;;;;6.20;99.90;;;;;;5014058;28;20166;-86
2021/12/29 04:58:42;;;;;;;;;;;6.20;99.90;;;;;;5010962;28;19921;-85
2021/12/29 05:01:07;;;;;;;;;;;6.30;99.90;;;;;;4992841;28;20008;-85
2021/12/29 05:03:36;;;;;;;;;;;6.30;99.90;;;;;;5012214;28;20362;-86
2021/12/29 05:08:31;;;;;;;;;;;6.30;99.90;;;;;;5000801;28;20276;-85
2021/12/29 05:10:58;;;;;;;;;;;6.40;99.90;;;;;;4998158;28;19923;-85
2021/12/29 05:13:24;;;;;;;;;;;6.40;99.90;;;;;;5014710;28;19914;-85
2021/12/29 05:15:49;;;;;;;;;;;6.40;99.90;;;;;;4997659;28;19967;-86
2021/12/29 05:18:15;;;;;;;;;;;6.40;99.90;;;;;;4994522;28;19967;-85
2021/12/29 05:20:41;;;;;;;;;;;6.40;99.90;;;;;;5001252;28;19920;-85
2021/12/29 05:23:07;;;;;;;;;;;6.40;99.90;;;;;;5003023;28;19921;-85
2021/12/29 05:25:32;;;;;;;;;;;6.40;99.90;;;;;;5013551;28;20015;-85
2021/12/29 05:27:58;;;;;;;;;;;6.40;99.90;;;;;;4994940;28;20031;-85
2021/12/29 05:30:24;;;;;;;;;;;6.40;99.90;;;;;;4977583;28;19928;-85
2021/12/29 05:32:50;;;;;;;;;;;6.40;99.90;;;;;;4994917;28;19924;-85
2021/12/29 05:35:16;;;;;;;;;;;6.50;99.90;;;;;;5000576;28;19925;-85
2021/12/29 05:37:42;;;;;;;;;;;6.50;99.90;;;;;;5013921;28;19984;-85
2021/12/29 05:40:08;;;;;;;;;;;6.50;99.90;;;;;;5013207;28;20008;-85
2021/12/29 05:42:34;;;;;;;;;;;6.50;99.90;;;;;;5014199;28;20022;-86
2021/12/29 05:45:03;;;;;;;;;;;6.50;99.90;;;;;;5014272;28;19913;-85
2021/12/29 05:47:29;;;;;;;;;;;6.50;99.90;;;;;;5013335;28;19913;-85
2021/12/29 05:49:55;;;;;;;;;;;6.50;99.90;;;;;;4997271;28;19923;-85
2021/12/29 05:52:20;;;;;;;;;;;6.50;99.90;;;;;;4997438;28;19923;-85
2021/12/29 05:54:46;;;;;;;;;;;6.50;99.90;;;;;;5013814;28;19967;-85
2021/12/29 05:57:11;;;;;;;;;;;6.50;99.90;;;;;;4998774;28;19944;-85
2021/12/29 05:59:37;;;;;;;;;;;6.50;99.90;;;;;;4997102;28;20407;-85
2021/12/29 06:02:03;;;;;;;;;;;6.50;99.90;;;;;;4997777;28;19917;-85
2021/12/29 06:04:29;;;;;;;;;;;6.50;99.90;;;;;;5013796;28;19920;-85
2021/12/29 06:06:55;;;;;;;;;;;6.50;99.90;;;;;;4999924;28;19928;-86
2021/12/29 06:09:20;;;;;;;;;;;6.50;99.90;;;;;;4993462;28;19914;-85
2021/12/29 06:11:46;;;;;;;;;;;6.50;99.90;;;;;;4978286;28;20020;-85
2021/12/29 06:14:12;;;;;;;;;;;6.50;99.90;;;;;;4994251;28;19935;-85
2021/12/29 06:16:37;;;;;;;;;;;6.50;99.90;;;;;;5012956;28;19935;-85
2021/12/29 06:19:03;;;;;;;;;;;6.50;99.90;;;;;;5013050;28;19952;-85
2021/12/29 06:21:28;;;;;;;;;;;6.50;99.90;;;;;;4977594;28;19951;-85
2021/12/29 06:23:54;;;;;;;;;;;6.50;99.90;;;;;;4994274;28;20350;-84
2021/12/29 06:26:20;;;;;;;;;;;6.50;99.90;;;;;;5017946;28;20299;-85
2021/12/29 06:28:46;;;;;;;;;;;6.50;99.90;;;;;;4996511;28;19964;-85
2021/12/29 06:31:12;;;;;;;;;;;6.60;99.90;;;;;;4997459;28;20011;-84
2021/12/29 06:33:38;;;;;;;;;;;6.60;99.90;;;;;;4997132;28;19971;-84
2021/12/29 06:36:03;;;;;;;;;;;6.60;99.90;;;;;;4993260;28;19961;-85
2021/12/29 06:38:29;;;;;;;;;;;6.60;99.90;;;;;;4996668;28;19986;-86
2021/12/29 06:40:55;;;;;;;;;;;6.70;99.90;;;;;;4996828;28;19913;-85
2021/12/29 06:43:20;;;;;;;;;;;6.60;99.90;;;;;;5013046;28;20003;-85
2021/12/29 06:45:46;;;;;;;;;;;6.50;99.90;;;;;;5013262;28;20300;-85
2021/12/29 06:48:12;;;;;;;;;;;6.60;99.90;;;;;;4991446;28;20338;-85
2021/12/29 06:50:37;;;;;;;;;;;6.50;99.90;;;;;;4991557;28;19913;-85
2021/12/29 06:53:03;;;;;;;;;;;6.50;99.90;;;;;;5014350;28;19923;-86
2021/12/29 06:55:28;;;;;;;;;;;6.50;99.90;;;;;;4998920;28;19917;-85
2021/12/29 06:57:54;;;;;;;;;;;6.50;99.90;;;;;;4994866;28;20315;-86
2021/12/29 07:00:20;;;;;;;;;;;6.50;99.90;;;;;;5017146;28;19918;-86
2021/12/29 07:02:45;;;;;;;;;;;6.60;99.90;;;;;;4993711;28;19923;-87
2021/12/29 07:05:11;;;;;;;;;;;6.50;99.90;;;;;;4998679;28;20526;-86
2021/12/29 07:07:37;;;;;;;;;;;6.60;99.90;;;;;;4998275;28;19913;-87
2021/12/29 07:10:03;;;;;;;;;;;6.50;99.90;;;;;;4997870;28;19960;-87
2021/12/29 07:12:29;;;;;;;;;;;6.60;99.90;;;;;;4999724;28;20000;-86
2021/12/29 07:14:55;;;;;;;;;;;6.50;99.90;;;;;;5002880;28;20013;-86
2021/12/29 07:17:20;;;;;;;;;;;6.60;99.90;;;;;;4977288;28;19921;-86
2021/12/29 07:19:46;;;;;;;;;;;6.60;99.90;;;;;;5000065;28;20375;-85
2021/12/29 07:22:12;;;;;;;;;;;6.60;99.90;;;;;;5000326;28;19920;-86
2021/12/29 07:24:37;;;;;;;;;;;6.60;99.90;;;;;;5016599;28;19959;-86
2021/12/29 07:27:03;;;;;;;;;;;6.60;99.90;;;;;;5017426;28;19913;-85
2021/12/29 07:29:29;;;;;;;;;;;6.60;99.90;;;;;;5000011;28;19986;-89
2021/12/29 07:31:57;;;;;;;;;;;6.60;99.90;;;;;;4995910;28;20363;-84
2021/12/29 07:34:24;;;;;;;;;;;6.60;99.90;;;;;;4996164;28;19932;-84
2021/12/29 07:36:50;;;;;;;;;;;6.60;99.90;;;;;;4999896;28;20679;-82
2021/12/29 07:39:15;;;;;;;;;;;6.70;99.90;;;;;;5033459;28;20066;-82
2021/12/29 07:41:42;;;;;;;;;;;6.70;99.90;;;;;;5027570;28;19916;-83
2021/12/29 07:44:13;;;;;;;;;;;6.70;99.90;;;;;;4996849;28;19921;-82
2021/12/29 07:46:41;;;;;;;;;;;6.70;99.90;;;;;;5022737;28;19963;-82
2021/12/29 07:49:07;;;;;;;;;;;6.70;99.90;;;;;;5016475;28;20004;-82
2021/12/29 07:51:32;;;;;;;;;;;6.80;99.90;;;;;;4986681;28;20353;-84
2021/12/29 07:53:59;;;;;;;;;;;6.80;99.90;;;;;;4999741;28;19913;-84
2021/12/29 07:56:25;;;;;;;;;;;6.80;99.90;;;;;;5012362;28;20417;-84
2021/12/29 07:58:51;;;;;;;;;;;6.80;99.90;;;;;;5009998;28;19945;-84
2021/12/29 08:01:17;;;;;;;;;;;6.80;99.90;;;;;;4997154;28;19913;-85
2021/12/29 08:03:43;;;;;;;;;;;6.80;99.90;;;;;;4999251;28;19917;-84
2021/12/29 08:06:08;;;;;;;;;;;6.80;99.90;;;;;;4999828;28;19917;-85
2021/12/29 08:08:34;;;;;;;;;;;6.80;99.90;;;;;;4997025;28;19960;-86
2021/12/29 08:11:00;;;;;;;;;;;6.80;99.90;;;;;;4997122;28;20399;-86
2021/12/29 08:13:25;;;;;;;;;;;6.80;99.90;;;;;;4990481;28;19928;-86
2021/12/29 08:15:51;;;;;;;;;;;6.80;99.90;;;;;;5015576;28;19940;-86
2021/12/29 08:18:16;;;;;;;;;;;6.80;99.90;;;;;;5002377;28;19928;-85
2021/12/29 08:20:42;;;;;;;;;;;6.80;99.90;;;;;;5015668;28;20295;-84
2021/12/29 08:23:08;;;;;;;;;;;6.80;99.90;;;;;;5016432;28;19918;-85
2021/12/29 08:25:34;;;;;;;;;;;6.80;99.90;;;;;;4999280;28;19928;-85
2021/12/29 08:28:00;;;;;;;;;;;6.80;99.90;;;;;;4999872;28;19913;-86
2021/12/29 08:30:26;;;;;;;;;;;6.90;99.90;;;;;;4999435;28;19924;-83
2021/12/29 08:32:51;;;;;;;;;;;6.90;99.90;;;;;;5014113;28;19914;-83
2021/12/29 08:35:17;;;;;;;;;;;6.80;99.90;;;;;;5025176;28;19913;-82
2021/12/29 08:37:43;;;;;;;;;;;6.80;99.90;;;;;;5007206;28;19921;-84
2021/12/29 08:40:09;;;;;;;;;;;6.80;99.90;;;;;;5014591;28;19936;-84
2021/12/29 08:42:35;;;;;;;;;;;6.80;99.90;;;;;;5015487;28;20383;-83
2021/12/29 08:45:01;;;;;;;;;;;6.80;99.90;;;;;;5033268;28;20023;-86
2021/12/29 08:47:27;;;;;;;;;;;6.80;99.90;;;;;;4999204;28;19960;-84
2021/12/29 08:49:52;;;;;;;;;;;6.80;99.90;;;;;;5014513;28;19917;-82
2021/12/29 08:52:18;;;;;;;;;;;6.80;99.90;;;;;;5014796;28;20458;-82
2021/12/29 08:54:44;;;;;;;;;;;6.80;99.90;;;;;;5031078;28;20408;-83
2021/12/29 08:57:09;;;;;;;;;;;6.90;99.90;;;;;;4998492;28;19921;-84
2021/12/29 08:59:35;;;;;;;;;;;6.80;99.90;;;;;;4998683;28;19936;-81
2021/12/29 09:02:00;;;;;;;;;;;6.90;99.90;;;;;;5015344;28;19917;-82
2021/12/29 09:04:26;;;;;;;;;;;6.90;99.90;;;;;;5032010;28;19924;-82
2021/12/29 09:06:52;;;;;;;;;;;6.90;99.90;;;;;;5012115;28;19917;-83
2021/12/29 09:09:18;;;;;;;;;;;6.90;99.90;;;;;;5012242;28;20403;-82
2021/12/29 09:11:44;;;;;;;;;;;6.90;99.90;;;;;;4996855;28;19925;-84
2021/12/29 09:14:09;;;;;;;;;;;6.90;99.90;;;;;;5004359;28;20311;-82
2021/12/29 09:16:35;;;;;;;;;;;6.90;99.90;;;;;;5012960;28;20020;-82
2021/12/29 09:19:01;;;;;;;;;;;6.90;99.90;;;;;;4998269;28;19924;-82
2021/12/29 09:21:28;;;;;;;;;;;7.00;99.90;;;;;;5014254;28;19917;-83
2021/12/29 09:23:53;;;;;;;;;;;6.90;99.90;;;;;;5014809;28;19935;-82
2021/12/29 09:26:19;;;;;;;;;;;6.90;99.90;;;;;;4997947;28;20388;-83
2021/12/29 09:28:46;;;;;;;;;;;6.90;99.90;;;;;;4997490;28;19944;-82
2021/12/29 09:31:13;;;;;;;;;;;7.00;99.90;;;;;;4982401;28;19924;-85
2021/12/29 09:33:40;;;;;;;;;;;7.00;99.90;;;;;;5014907;28;19956;-85
2021/12/29 09:36:06;;;;;;;;;;;7.00;99.90;;;;;;5017612;28;19920;-86
2021/12/29 09:38:35;;;;;;;;;;;7.00;99.90;;;;;;5014411;28;19913;-86
2021/12/29 09:41:01;;;;;;;;;;;7.00;99.90;;;;;;4998811;28;19917;-86
2021/12/29 09:43:27;;;;;;;;;;;7.10;99.90;;;;;;4998152;28;19913;-87
2021/12/29 09:45:53;;;;;;;;;;;7.20;99.90;;;;;;5014388;28;19962;-86
2021/12/29 09:48:19;;;;;;;;;;;7.20;99.90;;;;;;5014743;28;19913;-86
2021/12/29 09:50:45;;;;;;;;;;;7.20;99.90;;;;;;4998384;28;19923;-85
2021/12/29 09:53:11;;;;;;;;;;;7.20;99.90;;;;;;5014815;28;20359;-85
2021/12/29 09:55:37;;;;;;;;;;;7.20;99.90;;;;;;5011131;28;19920;-86
2021/12/29 09:58:04;;;;;;;;;;;7.20;99.90;;;;;;4979103;28;19917;-86
2021/12/29 10:00:32;;;;;;;;;;;7.30;99.90;;;;;;4995202;28;19913;-86
2021/12/29 10:02:59;;;;;;;;;;;7.30;99.90;;;;;;4979090;28;20376;-86
2021/12/29 10:05:27;;;;;;;;;;;7.30;99.90;;;;;;4994901;28;19917;-86
2021/12/29 10:07:59;;;;;;;;;;;7.40;99.90;;;;;;4979353;28;20016;-86
2021/12/29 10:10:25;;;;;;;;;;;7.40;99.90;;;;;;5020872;28;20004;-85
2021/12/29 10:12:50;;;;;;;;;;;7.40;99.90;;;;;;4998589;28;19948;-85
2021/12/29 10:15:16;;;;;;;;;;;7.30;99.90;;;;;;4995010;28;19917;-87
2021/12/29 10:17:42;;;;;;;;;;;7.40;99.90;;;;;;4994730;28;20451;-87
2021/12/29 10:20:15;;;;;;;;;;;7.40;99.90;;;;;;4978224;28;19910;-85
2021/12/29 10:22:41;;;;;;;;;;;7.30;99.90;;;;;;4996978;28;19917;-85
2021/12/29 10:25:12;;;;;;;;;;;7.30;99.90;;;;;;5014895;28;20256;-85
2021/12/29 10:27:38;;;;;;;;;;;7.30;99.90;;;;;;4997074;28;20381;-84
2021/12/29 10:30:24;;;;;;;;;;;7.30;99.90;;;;;;5010460;28;19914;-85
2021/12/29 10:32:51;;;;;;;;;;;7.30;99.90;;;;;;4993774;28;19920;-85
2021/12/29 10:35:21;;;;;;;;;;;7.40;99.90;;;;;;4999750;28;19925;-84
2021/12/29 10:37:47;;;;;;;;;;;7.40;99.90;;;;;;4997352;28;19921;-85
2021/12/29 10:40:22;;;;;;;;;;;7.50;99.90;;;;;;4996941;28;19913;-85
2021/12/29 10:42:52;;;;;;;;;;;7.50;99.90;;;;;;5014031;28;20378;-84
2021/12/29 10:45:27;;;;;;;;;;;7.60;99.90;;;;;;5013803;28;19913;-84
2021/12/29 10:47:52;;;;;;;;;;;7.60;99.90;;;;;;5013778;28;20394;-85
2021/12/29 10:50:18;;;;;;;;;;;7.60;99.90;;;;;;4982823;28;19921;-84
2021/12/29 10:52:48;;;;;;;;;;;7.70;99.90;;;;;;5009159;28;19928;-84
2021/12/29 10:55:21;;;;;;;;;;;7.70;99.90;;;;;;5010419;28;19972;-84
2021/12/29 10:57:58;;;;;;;;;;;7.80;99.90;;;;;;5029557;28;19917;-84
2021/12/29 11:00:24;;;;;;;;;;;7.80;99.90;;;;;;5012901;28;19921;-84
2021/12/29 11:02:49;;;;;;;;;;;7.80;99.90;;;;;;5011278;28;19914;-85
2021/12/29 11:05:15;;;;;;;;;;;7.90;99.90;;;;;;4996862;28;19913;-84
2021/12/29 11:07:41;;;;;;;;;;;7.90;99.90;;;;;;5012545;28;19924;-83
2021/12/29 11:10:11;;;;;;;;;;;7.90;99.90;;;;;;4996837;28;19917;-84
2021/12/29 11:12:51;;;;;;;;;;;7.90;99.90;;;;;;5024179;28;19917;-84
2021/12/29 11:15:21;;;;;;;;;;;7.90;99.90;;;;;;5013467;28;19913;-84
2021/12/29 11:17:46;;;;;;;;;;;7.80;99.90;;;;;;5028594;28;19917;-84
2021/12/29 11:20:17;;;;;;;;;;;7.80;99.90;;;;;;4993324;28;19960;-84
2021/12/29 11:22:43;;;;;;;;;;;7.80;99.90;;;;;;5013238;28;19913;-83
2021/12/29 11:25:08;;;;;;;;;;;7.80;99.90;;;;;;5009902;28;19917;-84
2021/12/29 11:27:37;;;;;;;;;;;7.80;99.90;;;;;;5007933;28;19921;-83
2021/12/29 11:30:08;;;;;;;;;;;7.80;99.90;;;;;;4995947;28;19920;-84
2021/12/29 11:32:51;;;;;;;;;;;7.90;99.90;;;;;;4981989;28;20351;-84
2021/12/29 11:35:19;;;;;;;;;;;7.90;99.90;;;;;;5018230;28;20037;-84
2021/12/29 11:37:47;;;;;;;;;;;7.90;99.90;;;;;;4995978;28;19921;-85
2021/12/29 11:40:14;;;;;;;;;;;7.80;99.90;;;;;;5030932;28;19943;-84
2021/12/29 11:42:40;;;;;;;;;;;7.80;99.90;;;;;;5012785;28;19956;-84
2021/12/29 11:45:06;;;;;;;;;;;7.80;99.90;;;;;;5017052;28;20668;-84
2021/12/29 11:47:32;;;;;;;;;;;7.80;99.90;;;;;;4997549;28;20415;-84
2021/12/29 11:49:58;;;;;;;;;;;7.80;99.90;;;;;;5010814;28;20012;-83
2021/12/29 11:52:42;;;;;;;;;;;7.80;99.90;;;;;;4998796;28;20503;-85
2021/12/29 11:55:19;;;;;;;;;;;7.80;99.90;;;;;;5031309;28;19913;-85
2021/12/29 11:57:45;;;;;;;;;;;7.70;99.90;;;;;;4996126;28;19926;-85
2021/12/29 12:00:17;;;;;;;;;;;7.80;99.90;;;;;;5006034;28;20036;-84
2021/12/29 12:02:43;;;;;;;;;;;7.80;99.90;;;;;;5001550;28;20000;-84
2021/12/29 12:05:11;;;;;;;;;;;7.70;99.90;;;;;;4980630;28;19913;-84
2021/12/29 12:07:37;;;;;;;;;;;7.80;99.90;;;;;;4979434;28;19944;-84
2021/12/29 12:10:08;;;;;;;;;;;7.80;99.90;;;;;;5008650;28;19935;-84
2021/12/29 12:12:42;;;;;;;;;;;7.70;99.90;;;;;;5012297;28;20414;-83
2021/12/29 12:15:08;;;;;;;;;;;7.70;99.90;;;;;;4998464;28;19996;-84
2021/12/29 12:17:34;;;;;;;;;;;7.70;99.90;;;;;;5005945;28;19932;-84
2021/12/29 12:20:02;;;;;;;;;;;7.70;99.90;;;;;;5014244;28;19913;-84
2021/12/29 12:22:29;;;;;;;;;;;7.70;99.90;;;;;;4999109;28;19917;-84
2021/12/29 12:24:54;;;;;;;;;;;7.70;99.90;;;;;;4999515;28;20319;-84
2021/12/29 12:27:31;;;;;;;;;;;7.80;99.90;;;;;;5031465;28;20047;-84
2021/12/29 12:30:20;;;;;;;;;;;7.70;99.90;;;;;;5002355;28;19916;-84
2021/12/29 12:32:47;;;;;;;;;;;7.70;99.90;;;;;;5011955;28;19917;-84
2021/12/29 12:35:13;;;;;;;;;;;7.70;99.90;;;;;;4995022;28;19917;-84
2021/12/29 12:37:45;;;;;;;;;;;7.70;99.90;;;;;;5014375;28;19917;-84
2021/12/29 12:40:11;;;;;;;;;;;7.80;99.90;;;;;;5009670;28;20016;-84
2021/12/29 12:42:37;;;;;;;;;;;7.70;99.90;;;;;;5009966;28;20387;-84
2021/12/29 12:45:14;;;;;;;;;;;7.70;99.90;;;;;;4996819;28;19918;-84
2021/12/29 12:47:40;;;;;;;;;;;7.70;99.90;;;;;;5014115;28;19958;-84
2021/12/29 12:50:06;;;;;;;;;;;7.70;99.90;;;;;;4992980;28;20007;-84
2021/12/29 12:52:39;;;;;;;;;;;7.70;99.90;;;;;;5014942;28;19928;-84
2021/12/29 12:55:06;;;;;;;;;;;7.70;99.90;;;;;;4998527;28;20024;-84
2021/12/29 12:57:34;;;;;;;;;;;7.70;99.90;;;;;;4998089;28;19983;-84
2021/12/29 13:00:26;;;;;;;;;;;7.70;99.90;;;;;;5014210;28;19953;-84
2021/12/29 13:02:56;;;;;;;;;;;7.80;99.90;;;;;;4996176;28;19921;-84
2021/12/29 13:05:41;;;;;;;;;;;7.70;99.90;;;;;;5015565;28;19924;-84
2021/12/29 13:08:09;;;;;;;;;;;7.70;99.90;;;;;;5018126;28;19920;-84
2021/12/29 13:10:42;;;;;;;;;;;7.70;99.90;;;;;;4994953;28;19917;-84
2021/12/29 13:13:15;;;;;;;;;;;7.60;99.90;;;;;;4979004;28;20403;-84
2021/12/29 13:15:42;;;;;;;;;;;7.60;99.90;;;;;;4977122;28;19925;-84
2021/12/29 13:18:08;;;;;;;;;;;7.60;99.90;;;;;;5001658;28;20120;-85
2021/12/29 13:20:35;;;;;;;;;;;7.60;99.90;;;;;;5014052;28;19909;-84
2021/12/29 13:23:00;;;;;;;;;;;7.60;99.90;;;;;;4997516;28;19949;-84
2021/12/29 13:25:28;;;;;;;;;;;7.50;99.90;;;;;;4997548;28;20006;-84
2021/12/29 13:28:02;;;;;;;;;;;7.50;99.90;;;;;;5030425;28;20334;-83
2021/12/29 13:30:29;;;;;;;;;;;7.40;99.90;;;;;;5000750;28;19923;-84
2021/12/29 13:32:56;;;;;;;;;;;7.40;99.90;;;;;;5012370;28;20047;-84
2021/12/29 13:35:27;;;;;;;;;;;7.30;99.90;;;;;;4995539;28;19921;-84
2021/12/29 13:37:55;;;;;;;;;;;7.30;99.90;;;;;;5010884;28;19931;-84
2021/12/29 13:40:26;;;;;;;;;;;7.20;99.90;;;;;;5001388;28;19917;-84
2021/12/29 13:42:52;;;;;;;;;;;7.20;99.90;;;;;;4994975;28;19912;-83
2021/12/29 13:45:22;;;;;;;;;;;7.20;99.90;;;;;;4983352;28;20604;-84
2021/12/29 13:47:48;;;;;;;;;;;7.20;99.90;;;;;;4986528;28;19917;-83
2021/12/29 13:50:14;;;;;;;;;;;7.10;99.90;;;;;;4992989;28;19924;-84
2021/12/29 13:52:40;;;;;;;;;;;7.20;99.90;;;;;;4991466;28;19921;-84
2021/12/29 13:55:05;;;;;;;;;;;7.20;99.90;;;;;;4961658;28;20376;-84
2021/12/29 13:57:33;;;;;;;;;;;7.10;99.90;;;;;;4980509;28;19924;-84
2021/12/29 13:59:59;;;;;;;;;;;7.10;99.90;;;;;;4974612;28;20596;-84
2021/12/29 14:02:24;;;;;;;;;;;7.10;99.90;;;;;;5016416;28;19921;-83
2021/12/29 14:04:52;;;;;;;;;;;7.00;99.90;;;;;;4998238;28;19964;-83
2021/12/29 14:07:18;;;;;;;;;;;7.10;99.90;;;;;;4992612;28;19917;-85
2021/12/29 14:09:44;;;;;;;;;;;7.00;99.90;;;;;;4997571;28;20019;-85
2021/12/29 14:12:09;;;;;;;;;;;7.00;99.90;;;;;;4975578;28;20400;-84
2021/12/29 14:14:36;;;;;;;;;;;7.00;99.90;;;;;;5018136;28;20663;-84
2021/12/29 14:17:02;;;;;;;;;;;7.00;99.90;;;;;;4991667;28;19923;-84
2021/12/29 14:19:29;;;;;;;;;;;7.00;99.90;;;;;;4989482;28;20407;-86
2021/12/29 14:21:55;;;;;;;;;;;7.00;99.90;;;;;;4988451;28;20012;-84
2021/12/29 14:24:21;;;;;;;;;;;7.00;99.90;;;;;;5009488;28;19918;-85
2021/12/29 14:26:48;;;;;;;;;;;7.00;99.90;;;;;;5009950;28;19918;-84
2021/12/29 14:29:16;;;;;;;;;;;7.00;99.90;;;;;;4990705;28;19917;-84
2021/12/29 14:31:47;;;;;;;;;;;6.90;99.90;;;;;;4992002;28;19913;-86
2021/12/29 14:34:14;;;;;;;;;;;6.90;99.90;;;;;;5026671;28;19955;-85
2021/12/29 14:36:47;;;;;;;;;;;6.90;99.90;;;;;;4991678;28;19921;-84